sensor_id;sensor_type;location;lat;lon;timestamp;pressure;altitude;pressure_sealevel;temperature;humidity
15229;BME280;7717;47.792;12.076;2023-02-15T00:01:50;97567.78;;;-0.01;nan
15229;BME280;7717;47.792;12.076;2023-02-15T00:04:19;97572.25;;;-0.10;nan
15229;BME280;7717;47.792;12.076;2023-02-15T00:06:45;97562.09;;;-0.26;nan
15229;BME280;7717;47.792;12.076;2023-02-15T00:09:10;97565.59;;;-0.09;nan
15229;BME280;7717;47.792;12.076;2023-02-15T00:11:36;97560.22;;;-0.01;nan
15229;BME280;7717;47.792;12.076;2023-02-15T00:14:27;97551.91;;;0.01;nan
15229;BME280;7717;47.792;12.076;2023-02-15T00:16:53;97548.00;;;0.06;nan
15229;BME280;7717;47.792;12.076;2023-02-15T00:19:20;97554.91;;;-0.05;nan
15229;BME280;7717;47.792;12.076;2023-02-15T00:21:47;97560.69;;;-0.21;nan
15229;BME280;7717;47.792;12.076;2023-02-15T00:24:15;97537.03;;;-0.25;nan
15229;BME280;7717;47.792;12.076;2023-02-15T00:26:41;97552.50;;;-0.04;nan
15229;BME280;7717;47.792;12.076;2023-02-15T00:29:08;97539.91;;;-0.04;nan
15229;BME280;7717;47.792;12.076;2023-02-15T00:31:34;97551.72;;;-0.03;nan
15229;BME280;7717;47.792;12.076;2023-02-15T00:34:06;97545.13;;;-0.01;nan
15229;BME280;7717;47.792;12.076;2023-02-15T00:36:32;97538.00;;;-0.08;nan
15229;BME280;7717;47.792;12.076;2023-02-15T00:38:57;97544.22;;;-0.16;nan
15229;BME280;7717;47.792;12.076;2023-02-15T00:41:23;97541.31;;;-0.09;nan
15229;BME280;7717;47.792;12.076;2023-02-15T00:43:48;97532.47;;;-0.30;nan
15229;BME280;7717;47.792;12.076;2023-02-15T00:46:14;97542.44;;;-0.32;nan
15229;BME280;7717;47.792;12.076;2023-02-15T00:48:39;97541.63;;;-0.17;nan
15229;BME280;7717;47.792;12.076;2023-02-15T00:51:04;97538.66;;;-0.25;nan
15229;BME280;7717;47.792;12.076;2023-02-15T00:53:30;97531.91;;;-0.26;nan
15229;BME280;7717;47.792;12.076;2023-02-15T00:55:56;97525.13;;;-0.27;nan
15229;BME280;7717;47.792;12.076;2023-02-15T00:58:21;97537.50;;;-0.30;nan
15229;BME280;7717;47.792;12.076;2023-02-15T01:00:47;97540.94;;;-0.15;nan
15229;BME280;7717;47.792;12.076;2023-02-15T01:03:14;97541.88;;;-0.13;nan
15229;BME280;7717;47.792;12.076;2023-02-15T01:05:39;97539.94;;;-0.32;nan
15229;BME280;7717;47.792;12.076;2023-02-15T01:08:05;97531.94;;;-0.40;nan
15229;BME280;7717;47.792;12.076;2023-02-15T01:10:31;97538.56;;;-0.27;nan
15229;BME280;7717;47.792;12.076;2023-02-15T01:12:58;97532.03;;;-0.38;nan
15229;BME280;7717;47.792;12.076;2023-02-15T01:15:23;97538.47;;;-0.28;nan
15229;BME280;7717;47.792;12.076;2023-02-15T01:17:49;97531.00;;;-0.27;nan
15229;BME280;7717;47.792;12.076;2023-02-15T01:20:24;97536.31;;;-0.22;nan
15229;BME280;7717;47.792;12.076;2023-02-15T01:22:51;97533.66;;;-0.10;nan
15229;BME280;7717;47.792;12.076;2023-02-15T01:25:17;97535.91;;;-0.15;nan
15229;BME280;7717;47.792;12.076;2023-02-15T01:27:44;97531.16;;;-0.10;nan
15229;BME280;7717;47.792;12.076;2023-02-15T01:30:10;97533.75;;;-0.09;nan
15229;BME280;7717;47.792;12.076;2023-02-15T01:32:36;97516.38;;;-0.47;nan
15229;BME280;7717;47.792;12.076;2023-02-15T01:35:01;97521.28;;;-0.35;nan
15229;BME280;7717;47.792;12.076;2023-02-15T01:37:26;97531.38;;;-0.49;nan
15229;BME280;7717;47.792;12.076;2023-02-15T01:39:52;97518.69;;;-0.65;nan
15229;BME280;7717;47.792;12.076;2023-02-15T01:42:23;97533.19;;;-0.75;nan
15229;BME280;7717;47.792;12.076;2023-02-15T01:50:00;97518.13;;;-0.88;nan
15229;BME280;7717;47.792;12.076;2023-02-15T01:52:27;97516.41;;;-1.02;nan
15229;BME280;7717;47.792;12.076;2023-02-15T01:54:52;97511.69;;;-0.98;nan
15229;BME280;7717;47.792;12.076;2023-02-15T01:57:22;97505.94;;;-0.82;nan
15229;BME280;7717;47.792;12.076;2023-02-15T01:59:53;97500.91;;;-0.82;nan
15229;BME280;7717;47.792;12.076;2023-02-15T02:02:21;97496.84;;;-0.80;nan
15229;BME280;7717;47.792;12.076;2023-02-15T02:04:51;97481.69;;;-0.81;nan
15229;BME280;7717;47.792;12.076;2023-02-15T02:07:20;97496.44;;;-0.73;nan
15229;BME280;7717;47.792;12.076;2023-02-15T02:09:47;97498.41;;;-0.82;nan
15229;BME280;7717;47.792;12.076;2023-02-15T02:12:14;97492.00;;;-0.77;nan
15229;BME280;7717;47.792;12.076;2023-02-15T02:14:41;97488.06;;;-0.58;nan
15229;BME280;7717;47.792;12.076;2023-02-15T02:17:17;97486.53;;;-0.56;nan
15229;BME280;7717;47.792;12.076;2023-02-15T02:25:49;97483.13;;;-0.57;nan
15229;BME280;7717;47.792;12.076;2023-02-15T02:34:14;97479.91;;;-0.41;nan
15229;BME280;7717;47.792;12.076;2023-02-15T02:36:59;97479.75;;;-0.57;nan
15229;BME280;7717;47.792;12.076;2023-02-15T02:39:42;97472.59;;;-0.51;nan
15229;BME280;7717;47.792;12.076;2023-02-15T02:47:56;97455.06;;;-0.49;nan
15229;BME280;7717;47.792;12.076;2023-02-15T02:50:27;97465.50;;;-0.43;nan
15229;BME280;7717;47.792;12.076;2023-02-15T02:52:55;97452.84;;;-0.30;nan
15229;BME280;7717;47.792;12.076;2023-02-15T02:55:40;97463.88;;;-0.28;nan
15229;BME280;7717;47.792;12.076;2023-02-15T03:01:15;97450.41;;;-0.28;nan
15229;BME280;7717;47.792;12.076;2023-02-15T03:03:49;97450.59;;;-0.25;nan
15229;BME280;7717;47.792;12.076;2023-02-15T03:06:25;97438.19;;;-0.37;nan
15229;BME280;7717;47.792;12.076;2023-02-15T03:09:01;97443.13;;;-0.39;nan
15229;BME280;7717;47.792;12.076;2023-02-15T03:11:28;97428.00;;;-0.53;nan
15229;BME280;7717;47.792;12.076;2023-02-15T03:13:55;97437.16;;;-0.41;nan
15229;BME280;7717;47.792;12.076;2023-02-15T03:16:21;97441.66;;;-0.35;nan
15229;BME280;7717;47.792;12.076;2023-02-15T03:19:07;97434.88;;;-0.36;nan
15229;BME280;7717;47.792;12.076;2023-02-15T03:21:40;97445.09;;;-0.48;nan
15229;BME280;7717;47.792;12.076;2023-02-15T03:24:10;97433.84;;;-0.40;nan
15229;BME280;7717;47.792;12.076;2023-02-15T03:26:39;97443.19;;;-0.52;nan
15229;BME280;7717;47.792;12.076;2023-02-15T03:29:06;97438.06;;;-0.53;nan
15229;BME280;7717;47.792;12.076;2023-02-15T03:31:37;97428.09;;;-0.52;nan
15229;BME280;7717;47.792;12.076;2023-02-15T03:34:08;97412.66;;;-0.58;nan
15229;BME280;7717;47.792;12.076;2023-02-15T03:36:45;97433.56;;;-0.59;nan
15229;BME280;7717;47.792;12.076;2023-02-15T03:39:33;97427.53;;;-0.61;nan
15229;BME280;7717;47.792;12.076;2023-02-15T03:42:07;97419.81;;;-0.64;nan
15229;BME280;7717;47.792;12.076;2023-02-15T03:44:43;97439.75;;;-0.67;nan
15229;BME280;7717;47.792;12.076;2023-02-15T03:47:18;97438.06;;;-0.53;nan
15229;BME280;7717;47.792;12.076;2023-02-15T03:49:52;97437.75;;;-0.45;nan
15229;BME280;7717;47.792;12.076;2023-02-15T03:52:20;97428.53;;;-0.59;nan
15229;BME280;7717;47.792;12.076;2023-02-15T03:54:46;97424.50;;;-0.42;nan
15229;BME280;7717;47.792;12.076;2023-02-15T04:00:02;97434.94;;;-0.49;nan
15229;BME280;7717;47.792;12.076;2023-02-15T04:02:55;97419.59;;;-0.54;nan
15229;BME280;7717;47.792;12.076;2023-02-15T04:05:23;97430.44;;;-0.83;nan
15229;BME280;7717;47.792;12.076;2023-02-15T04:07:48;97435.81;;;-0.92;nan
15229;BME280;7717;47.792;12.076;2023-02-15T04:10:13;97442.78;;;-0.73;nan
15229;BME280;7717;47.792;12.076;2023-02-15T04:12:57;97445.94;;;-0.62;nan
15229;BME280;7717;47.792;12.076;2023-02-15T04:15:23;97432.19;;;-1.11;nan
15229;BME280;7717;47.792;12.076;2023-02-15T04:18:06;97433.28;;;-1.34;nan
15229;BME280;7717;47.792;12.076;2023-02-15T04:20:32;97437.16;;;-0.97;nan
15229;BME280;7717;47.792;12.076;2023-02-15T04:23:16;97452.28;;;-1.24;nan
15229;BME280;7717;47.792;12.076;2023-02-15T04:26:03;97450.31;;;-1.01;nan
15229;BME280;7717;47.792;12.076;2023-02-15T04:28:30;97458.44;;;-1.19;nan
15229;BME280;7717;47.792;12.076;2023-02-15T04:30:55;97449.34;;;-1.45;nan
15229;BME280;7717;47.792;12.076;2023-02-15T04:33:20;97441.31;;;-1.53;nan
15229;BME280;7717;47.792;12.076;2023-02-15T04:35:46;97459.28;;;-1.47;nan
15229;BME280;7717;47.792;12.076;2023-02-15T04:38:11;97451.75;;;-1.60;nan
15229;BME280;7717;47.792;12.076;2023-02-15T04:40:37;97457.47;;;-1.63;nan
15229;BME280;7717;47.792;12.076;2023-02-15T04:43:02;97462.63;;;-1.59;nan
15229;BME280;7717;47.792;12.076;2023-02-15T04:45:27;97455.22;;;-1.58;nan
15229;BME280;7717;47.792;12.076;2023-02-15T04:47:53;97465.63;;;-1.52;nan
15229;BME280;7717;47.792;12.076;2023-02-15T04:50:19;97469.59;;;-1.55;nan
15229;BME280;7717;47.792;12.076;2023-02-15T04:52:44;97470.84;;;-1.35;nan
15229;BME280;7717;47.792;12.076;2023-02-15T04:55:09;97474.91;;;-1.51;nan
15229;BME280;7717;47.792;12.076;2023-02-15T04:57:35;97471.94;;;-1.45;nan
15229;BME280;7717;47.792;12.076;2023-02-15T05:00:00;97479.66;;;-1.42;nan
15229;BME280;7717;47.792;12.076;2023-02-15T05:02:26;97476.06;;;-1.46;nan
15229;BME280;7717;47.792;12.076;2023-02-15T05:04:51;97483.78;;;-1.42;nan
15229;BME280;7717;47.792;12.076;2023-02-15T05:07:16;97484.56;;;-1.30;nan
15229;BME280;7717;47.792;12.076;2023-02-15T05:09:42;97475.69;;;-1.25;nan
15229;BME280;7717;47.792;12.076;2023-02-15T05:12:08;97482.81;;;-1.04;nan
15229;BME280;7717;47.792;12.076;2023-02-15T05:14:33;97467.31;;;-0.97;nan
15229;BME280;7717;47.792;12.076;2023-02-15T05:16:58;97474.28;;;-1.06;nan
15229;BME280;7717;47.792;12.076;2023-02-15T05:19:27;97478.16;;;-1.12;nan
15229;BME280;7717;47.792;12.076;2023-02-15T05:21:52;97485.78;;;-1.10;nan
15229;BME280;7717;47.792;12.076;2023-02-15T05:24:17;97488.44;;;-1.22;nan
15229;BME280;7717;47.792;12.076;2023-02-15T05:27:01;97477.50;;;-1.22;nan
15229;BME280;7717;47.792;12.076;2023-02-15T05:29:45;97486.66;;;-0.96;nan
15229;BME280;7717;47.792;12.076;2023-02-15T05:32:13;97483.75;;;-0.89;nan
15229;BME280;7717;47.792;12.076;2023-02-15T05:34:39;97484.13;;;-0.96;nan
15229;BME280;7717;47.792;12.076;2023-02-15T05:37:04;97483.75;;;-1.02;nan
15229;BME280;7717;47.792;12.076;2023-02-15T05:39:30;97473.22;;;-0.97;nan
15229;BME280;7717;47.792;12.076;2023-02-15T05:41:58;97476.97;;;-0.90;nan
15229;BME280;7717;47.792;12.076;2023-02-15T05:44:24;97496.13;;;-0.92;nan
15229;BME280;7717;47.792;12.076;2023-02-15T05:46:49;97493.19;;;-0.85;nan
15229;BME280;7717;47.792;12.076;2023-02-15T05:49:15;97481.53;;;-0.98;nan
15229;BME280;7717;47.792;12.076;2023-02-15T05:51:43;97502.50;;;-0.97;nan
15229;BME280;7717;47.792;12.076;2023-02-15T05:54:08;97494.38;;;-1.06;nan
15229;BME280;7717;47.792;12.076;2023-02-15T05:56:34;97485.88;;;-0.95;nan
15229;BME280;7717;47.792;12.076;2023-02-15T05:58:59;97499.22;;;-0.96;nan
15229;BME280;7717;47.792;12.076;2023-02-15T06:01:24;97498.56;;;-1.07;nan
15229;BME280;7717;47.792;12.076;2023-02-15T06:03:50;97472.88;;;-1.30;nan
15229;BME280;7717;47.792;12.076;2023-02-15T06:06:18;97501.16;;;-1.19;nan
15229;BME280;7717;47.792;12.076;2023-02-15T06:08:44;97493.28;;;-1.25;nan
15229;BME280;7717;47.792;12.076;2023-02-15T06:11:09;97499.13;;;-0.98;nan
15229;BME280;7717;47.792;12.076;2023-02-15T06:13:35;97498.50;;;-0.80;nan
15229;BME280;7717;47.792;12.076;2023-02-15T06:16:00;97495.97;;;-0.80;nan
15229;BME280;7717;47.792;12.076;2023-02-15T06:18:26;97486.88;;;-0.78;nan
15229;BME280;7717;47.792;12.076;2023-02-15T06:20:51;97501.28;;;-0.76;nan
15229;BME280;7717;47.792;12.076;2023-02-15T06:23:16;97493.00;;;-0.88;nan
15229;BME280;7717;47.792;12.076;2023-02-15T06:25:46;97497.53;;;-0.82;nan
15229;BME280;7717;47.792;12.076;2023-02-15T06:28:11;97504.66;;;-0.75;nan
15229;BME280;7717;47.792;12.076;2023-02-15T06:30:36;97491.03;;;-0.79;nan
15229;BME280;7717;47.792;12.076;2023-02-15T06:33:02;97495.13;;;-0.94;nan
15229;BME280;7717;47.792;12.076;2023-02-15T06:35:27;97488.69;;;-0.91;nan
15229;BME280;7717;47.792;12.076;2023-02-15T06:37:53;97502.09;;;-0.90;nan
15229;BME280;7717;47.792;12.076;2023-02-15T06:40:21;97499.22;;;-0.55;nan
15229;BME280;7717;47.792;12.076;2023-02-15T06:42:46;97501.44;;;-0.59;nan
15229;BME280;7717;47.792;12.076;2023-02-15T06:45:12;97496.88;;;-0.93;nan
15229;BME280;7717;47.792;12.076;2023-02-15T06:47:38;97498.16;;;-1.00;nan
15229;BME280;7717;47.792;12.076;2023-02-15T06:50:05;97492.03;;;-0.90;nan
15229;BME280;7717;47.792;12.076;2023-02-15T06:52:31;97494.75;;;-1.00;nan
15229;BME280;7717;47.792;12.076;2023-02-15T06:54:56;97490.53;;;-1.01;nan
15229;BME280;7717;47.792;12.076;2023-02-15T06:57:21;97497.03;;;-0.77;nan
15229;BME280;7717;47.792;12.076;2023-02-15T06:59:47;97510.38;;;-0.78;nan
15229;BME280;7717;47.792;12.076;2023-02-15T07:02:13;97489.53;;;-0.90;nan
15229;BME280;7717;47.792;12.076;2023-02-15T07:04:38;97498.38;;;-0.68;nan
15229;BME280;7717;47.792;12.076;2023-02-15T07:07:08;97495.03;;;-0.54;nan
15229;BME280;7717;47.792;12.076;2023-02-15T07:09:34;97487.13;;;-0.60;nan
15229;BME280;7717;47.792;12.076;2023-02-15T07:11:59;97486.44;;;-0.58;nan
15229;BME280;7717;47.792;12.076;2023-02-15T07:14:46;97490.75;;;-0.42;nan
15229;BME280;7717;47.792;12.076;2023-02-15T07:17:14;97488.91;;;-0.44;nan
15229;BME280;7717;47.792;12.076;2023-02-15T07:19:39;97498.50;;;-0.52;nan
15229;BME280;7717;47.792;12.076;2023-02-15T07:22:04;97495.22;;;-0.51;nan
15229;BME280;7717;47.792;12.076;2023-02-15T07:24:30;97498.22;;;-0.28;nan
15229;BME280;7717;47.792;12.076;2023-02-15T07:26:55;97494.06;;;-0.13;nan
15229;BME280;7717;47.792;12.076;2023-02-15T07:29:22;97481.31;;;-0.31;nan
15229;BME280;7717;47.792;12.076;2023-02-15T07:31:48;97491.06;;;0.08;nan
15229;BME280;7717;47.792;12.076;2023-02-15T07:34:13;97496.28;;;0.26;nan
15229;BME280;7717;47.792;12.076;2023-02-15T07:36:39;97497.63;;;-0.24;nan
15229;BME280;7717;47.792;12.076;2023-02-15T07:39:04;97484.56;;;-0.47;nan
15229;BME280;7717;47.792;12.076;2023-02-15T07:41:29;97495.03;;;-0.54;nan
15229;BME280;7717;47.792;12.076;2023-02-15T07:43:55;97496.78;;;-0.53;nan
15229;BME280;7717;47.792;12.076;2023-02-15T07:46:20;97498.41;;;-0.53;nan
15229;BME280;7717;47.792;12.076;2023-02-15T07:48:49;97484.41;;;-0.35;nan
15229;BME280;7717;47.792;12.076;2023-02-15T07:51:15;97481.84;;;-0.07;nan
15229;BME280;7717;47.792;12.076;2023-02-15T07:53:41;97492.72;;;0.07;nan
15229;BME280;7717;47.792;12.076;2023-02-15T07:56:10;97490.03;;;-0.11;nan
15229;BME280;7717;47.792;12.076;2023-02-15T07:58:36;97480.03;;;-0.09;nan
15229;BME280;7717;47.792;12.076;2023-02-15T08:01:25;97486.81;;;0.07;nan
15229;BME280;7717;47.792;12.076;2023-02-15T08:03:53;97494.63;;;0.11;nan
15229;BME280;7717;47.792;12.076;2023-02-15T08:06:19;97500.69;;;0.45;nan
15229;BME280;7717;47.792;12.076;2023-02-15T08:08:44;97485.50;;;0.58;nan
15229;BME280;7717;47.792;12.076;2023-02-15T08:18:57;97481.47;;;0.62;nan
15229;BME280;7717;47.792;12.076;2023-02-15T08:21:26;97463.53;;;0.26;nan
15229;BME280;7717;47.792;12.076;2023-02-15T08:23:52;97488.19;;;0.61;nan
15229;BME280;7717;47.792;12.076;2023-02-15T08:26:17;97477.53;;;0.82;nan
15229;BME280;7717;47.792;12.076;2023-02-15T08:28:43;97472.84;;;1.04;nan
15229;BME280;7717;47.792;12.076;2023-02-15T08:31:10;97469.72;;;1.08;nan
15229;BME280;7717;47.792;12.076;2023-02-15T08:33:37;97480.13;;;1.15;nan
15229;BME280;7717;47.792;12.076;2023-02-15T08:36:05;97476.56;;;1.11;nan
15229;BME280;7717;47.792;12.076;2023-02-15T08:38:31;97463.28;;;1.30;nan
15229;BME280;7717;47.792;12.076;2023-02-15T08:40:57;97462.69;;;1.36;nan
15229;BME280;7717;47.792;12.076;2023-02-15T08:43:23;97466.84;;;1.50;nan
15229;BME280;7717;47.792;12.076;2023-02-15T08:45:48;97454.81;;;1.62;nan
15229;BME280;7717;47.792;12.076;2023-02-15T08:48:13;97459.78;;;1.28;nan
15229;BME280;7717;47.792;12.076;2023-02-15T08:50:39;97461.69;;;1.65;nan
15229;BME280;7717;47.792;12.076;2023-02-15T08:53:04;97464.81;;;1.94;nan
15229;BME280;7717;47.792;12.076;2023-02-15T08:55:30;97457.19;;;2.10;nan
15229;BME280;7717;47.792;12.076;2023-02-15T08:57:55;97450.84;;;1.84;nan
15229;BME280;7717;47.792;12.076;2023-02-15T09:00:21;97446.47;;;1.98;nan
15229;BME280;7717;47.792;12.076;2023-02-15T09:02:53;97459.88;;;2.13;nan
15229;BME280;7717;47.792;12.076;2023-02-15T09:05:18;97457.19;;;2.10;nan
15229;BME280;7717;47.792;12.076;2023-02-15T09:07:43;97453.38;;;1.84;nan
15229;BME280;7717;47.792;12.076;2023-02-15T09:10:09;97438.09;;;1.65;nan
15229;BME280;7717;47.792;12.076;2023-02-15T09:12:34;97449.75;;;2.13;nan
15229;BME280;7717;47.792;12.076;2023-02-15T09:15:00;97441.78;;;2.58;nan
15229;BME280;7717;47.792;12.076;2023-02-15T09:17:28;97448.25;;;2.53;nan
15229;BME280;7717;47.792;12.076;2023-02-15T09:19:53;97460.84;;;2.69;nan
15229;BME280;7717;47.792;12.076;2023-02-15T09:22:19;97451.97;;;2.60;nan
15229;BME280;7717;47.792;12.076;2023-02-15T09:24:44;97446.03;;;2.41;nan
15229;BME280;7717;47.792;12.076;2023-02-15T09:27:09;97449.22;;;3.11;nan
15229;BME280;7717;47.792;12.076;2023-02-15T09:29:35;97423.34;;;3.55;nan
15229;BME280;7717;47.792;12.076;2023-02-15T09:32:00;97434.50;;;3.60;nan
15229;BME280;7717;47.792;12.076;2023-02-15T09:34:26;97449.19;;;3.68;nan
15229;BME280;7717;47.792;12.076;2023-02-15T09:36:55;97449.56;;;3.57;nan
15229;BME280;7717;47.792;12.076;2023-02-15T09:39:25;97457.03;;;3.35;nan
15229;BME280;7717;47.792;12.076;2023-02-15T09:50:43;97263.72;;;12.29;nan
15229;BME280;7717;47.792;12.076;2023-02-15T09:53:17;97382.28;;;9.49;nan
15229;BME280;7717;47.792;12.076;2023-02-15T09:55:56;97435.72;;;7.30;nan
15229;BME280;7717;47.792;12.076;2023-02-15T09:58:35;97453.25;;;5.60;nan
15229;BME280;7717;47.792;12.076;2023-02-15T10:01:13;97443.50;;;5.97;nan
15229;BME280;7717;47.792;12.076;2023-02-15T10:06:39;97420.50;;;7.01;nan
15229;BME280;7717;47.792;12.076;2023-02-15T10:09:19;97442.13;;;6.32;nan
15229;BME280;7717;47.792;12.076;2023-02-15T10:17:14;97444.94;;;5.17;nan
15229;BME280;7717;47.792;12.076;2023-02-15T10:23:08;97368.91;;;8.77;nan
15229;BME280;7717;47.792;12.076;2023-02-15T10:26:18;97322.91;;;9.65;nan
15229;BME280;7717;47.792;12.076;2023-02-15T10:28:52;97311.94;;;10.24;nan
15229;BME280;7717;47.792;12.076;2023-02-15T10:31:27;97327.78;;;10.57;nan
15229;BME280;7717;47.792;12.076;2023-02-15T10:34:38;97352.78;;;9.68;nan
15229;BME280;7717;47.792;12.076;2023-02-15T10:37:31;97412.31;;;7.11;nan
15229;BME280;7717;47.792;12.076;2023-02-15T10:40:10;97392.41;;;8.27;nan
15229;BME280;7717;47.792;12.076;2023-02-15T10:45:31;97296.22;;;10.58;nan
15229;BME280;7717;47.792;12.076;2023-02-15T10:50:59;97316.03;;;10.71;nan
15229;BME280;7717;47.792;12.076;2023-02-15T11:01:58;97196.38;;;14.15;nan
15229;BME280;7717;47.792;12.076;2023-02-15T11:04:39;97250.47;;;13.36;nan
15229;BME280;7717;47.792;12.076;2023-02-15T11:07:14;97245.28;;;13.31;nan
15229;BME280;7717;47.792;12.076;2023-02-15T11:09:48;97141.63;;;15.37;nan
15229;BME280;7717;47.792;12.076;2023-02-15T11:12:18;97174.44;;;15.19;nan
15229;BME280;7717;47.792;12.076;2023-02-15T11:14:51;97157.84;;;15.51;nan
15229;BME280;7717;47.792;12.076;2023-02-15T11:17:24;97220.00;;;16.26;nan
15229;BME280;7717;47.792;12.076;2023-02-15T11:20:08;97103.72;;;16.29;nan
15229;BME280;7717;47.792;12.076;2023-02-15T11:22:40;97186.75;;;16.71;nan
15229;BME280;7717;47.792;12.076;2023-02-15T11:25:17;97122.16;;;15.99;nan
15229;BME280;7717;47.792;12.076;2023-02-15T11:27:46;97135.91;;;15.98;nan
15229;BME280;7717;47.792;12.076;2023-02-15T11:30:15;97194.03;;;16.40;nan
15229;BME280;7717;47.792;12.076;2023-02-15T11:32:43;97173.47;;;17.55;nan
15229;BME280;7717;47.792;12.076;2023-02-15T11:40:29;97118.88;;;16.57;nan
15229;BME280;7717;47.792;12.076;2023-02-15T11:42:58;97138.19;;;17.51;nan
15229;BME280;7717;47.792;12.076;2023-02-15T11:45:30;97145.69;;;16.48;nan
15229;BME280;7717;47.792;12.076;2023-02-15T11:48:00;97141.47;;;17.60;nan
15229;BME280;7717;47.792;12.076;2023-02-15T11:50:29;97129.00;;;17.31;nan
15229;BME280;7717;47.792;12.076;2023-02-15T11:53:02;97042.59;;;18.69;nan
15229;BME280;7717;47.792;12.076;2023-02-15T11:55:28;97155.34;;;18.50;nan
15229;BME280;7717;47.792;12.076;2023-02-15T12:01:00;97102.75;;;18.45;nan
15229;BME280;7717;47.792;12.076;2023-02-15T12:03:45;96993.78;;;19.21;nan
15229;BME280;7717;47.792;12.076;2023-02-15T12:06:17;96958.28;;;18.51;nan
15229;BME280;7717;47.792;12.076;2023-02-15T12:08:51;96997.41;;;18.78;nan
15229;BME280;7717;47.792;12.076;2023-02-15T12:11:22;96994.38;;;19.31;nan
15229;BME280;7717;47.792;12.076;2023-02-15T12:14:03;96989.56;;;18.81;nan
15229;BME280;7717;47.792;12.076;2023-02-15T12:16:34;97047.88;;;18.65;nan
15229;BME280;7717;47.792;12.076;2023-02-15T12:19:05;97035.66;;;16.90;nan
15229;BME280;7717;47.792;12.076;2023-02-15T12:21:40;97099.31;;;17.54;nan
15229;BME280;7717;47.792;12.076;2023-02-15T12:24:17;96963.28;;;19.30;nan
15229;BME280;7717;47.792;12.076;2023-02-15T12:26:44;96990.03;;;19.33;nan
15229;BME280;7717;47.792;12.076;2023-02-15T12:29:25;96991.66;;;19.36;nan
15229;BME280;7717;47.792;12.076;2023-02-15T12:31:52;97052.84;;;19.81;nan
15229;BME280;7717;47.792;12.076;2023-02-15T12:34:26;96915.72;;;20.19;nan
15229;BME280;7717;47.792;12.076;2023-02-15T12:36:57;96920.34;;;21.41;nan
15229;BME280;7717;47.792;12.076;2023-02-15T12:39:27;96891.16;;;21.31;nan
15229;BME280;7717;47.792;12.076;2023-02-15T12:41:57;96915.13;;;21.41;nan
15229;BME280;7717;47.792;12.076;2023-02-15T12:44:36;96861.03;;;21.49;nan
15229;BME280;7717;47.792;12.076;2023-02-15T12:49:36;96994.66;;;20.44;nan
15229;BME280;7717;47.792;12.076;2023-02-15T12:52:22;96936.63;;;20.97;nan
15229;BME280;7717;47.792;12.076;2023-02-15T12:54:49;97004.53;;;20.03;nan
15229;BME280;7717;47.792;12.076;2023-02-15T13:00:03;96985.09;;;20.17;nan
15229;BME280;7717;47.792;12.076;2023-02-15T13:07:45;96907.28;;;20.92;nan
15229;BME280;7717;47.792;12.076;2023-02-15T13:12:51;96912.69;;;21.62;nan
15229;BME280;7717;47.792;12.076;2023-02-15T13:15:30;96988.31;;;17.37;nan
15229;BME280;7717;47.792;12.076;2023-02-15T13:17:58;96980.91;;;19.50;nan
15229;BME280;7717;47.792;12.076;2023-02-15T13:20:25;96923.72;;;21.43;nan
15229;BME280;7717;47.792;12.076;2023-02-15T13:22:58;96875.53;;;20.02;nan
15229;BME280;7717;47.792;12.076;2023-02-15T13:25:30;96873.84;;;20.28;nan
15229;BME280;7717;47.792;12.076;2023-02-15T13:28:03;96889.97;;;20.66;nan
15229;BME280;7717;47.792;12.076;2023-02-15T13:30:35;96862.91;;;22.14;nan
15229;BME280;7717;47.792;12.076;2023-02-15T13:33:16;96959.53;;;20.03;nan
15229;BME280;7717;47.792;12.076;2023-02-15T13:35:49;96994.22;;;19.04;nan
15229;BME280;7717;47.792;12.076;2023-02-15T13:41:09;96798.44;;;22.17;nan
15229;BME280;7717;47.792;12.076;2023-02-15T13:52:08;96719.63;;;23.48;nan
15229;BME280;7717;47.792;12.076;2023-02-15T13:54:57;96753.97;;;22.20;nan
15229;BME280;7717;47.792;12.076;2023-02-15T14:06:00;96852.13;;;20.02;nan
15229;BME280;7717;47.792;12.076;2023-02-15T14:15:08;96792.72;;;21.65;nan
15229;BME280;7717;47.792;12.076;2023-02-15T14:17:47;96794.53;;;22.07;nan
15229;BME280;7717;47.792;12.076;2023-02-15T14:23:04;96789.34;;;20.92;nan
15229;BME280;7717;47.792;12.076;2023-02-15T14:25:53;96835.50;;;20.87;nan
15229;BME280;7717;47.792;12.076;2023-02-15T14:28:47;96845.78;;;20.11;nan
15229;BME280;7717;47.792;12.076;2023-02-15T14:31:15;96905.59;;;20.66;nan
15229;BME280;7717;47.792;12.076;2023-02-15T14:34:00;96819.53;;;19.92;nan
15229;BME280;7717;47.792;12.076;2023-02-15T14:36:27;96901.72;;;19.03;nan
15229;BME280;7717;47.792;12.076;2023-02-15T14:42:04;96877.22;;;18.45;nan
15229;BME280;7717;47.792;12.076;2023-02-15T14:44:39;96967.84;;;17.24;nan
15229;BME280;7717;47.792;12.076;2023-02-15T14:47:16;96946.38;;;17.19;nan
15229;BME280;7717;47.792;12.076;2023-02-15T14:49:44;96924.94;;;17.98;nan
15229;BME280;7717;47.792;12.076;2023-02-15T14:52:11;96962.28;;;17.90;nan
15229;BME280;7717;47.792;12.076;2023-02-15T15:02:20;97045.47;;;15.22;nan
15229;BME280;7717;47.792;12.076;2023-02-15T15:07:22;97010.25;;;16.00;nan
15229;BME280;7717;47.792;12.076;2023-02-15T15:10:32;97042.63;;;14.38;nan
15229;BME280;7717;47.792;12.076;2023-02-15T15:12:54;97145.72;;;12.61;nan
15229;BME280;7717;47.792;12.076;2023-02-15T15:18:42;97188.59;;;11.33;nan
15229;BME280;7717;47.792;12.076;2023-02-15T15:20:54;97199.44;;;11.06;nan
15229;BME280;7717;47.792;12.076;2023-02-15T15:39:57;97220.63;;;9.64;nan
15229;BME280;7717;47.792;12.076;2023-02-15T15:46:00;97190.59;;;8.98;nan
15229;BME280;7717;47.792;12.076;2023-02-15T15:48:35;97163.59;;;8.64;nan
15229;BME280;7717;47.792;12.076;2023-02-15T15:51:20;97177.22;;;8.23;nan
15229;BME280;7717;47.792;12.076;2023-02-15T15:53:49;97133.13;;;7.86;nan
15229;BME280;7717;47.792;12.076;2023-02-15T15:56:21;97150.34;;;7.59;nan
15229;BME280;7717;47.792;12.076;2023-02-15T15:58:53;97152.03;;;7.21;nan
15229;BME280;7717;47.792;12.076;2023-02-15T16:01:37;97152.34;;;6.99;nan
15229;BME280;7717;47.792;12.076;2023-02-15T16:04:04;97155.09;;;6.75;nan
15229;BME280;7717;47.792;12.076;2023-02-15T16:06:34;97158.75;;;6.53;nan
15229;BME280;7717;47.792;12.076;2023-02-15T16:11:42;97167.09;;;5.88;nan
15229;BME280;7717;47.792;12.076;2023-02-15T16:14:13;97163.00;;;5.64;nan
15229;BME280;7717;47.792;12.076;2023-02-15T16:16:39;97171.16;;;5.54;nan
15229;BME280;7717;47.792;12.076;2023-02-15T16:19:18;97171.47;;;5.37;nan
15229;BME280;7717;47.792;12.076;2023-02-15T16:21:46;97155.88;;;4.99;nan